sensor_id;sensor_type;location;lat;lon;timestamp;pressure;altitude;pressure_sealevel;temperature;humidity
9091;BME280;4581;42.416;25.598;2023-05-12T00:01:06;67203.22;;;0.00;nan
9091;BME280;4581;42.416;25.598;2023-05-12T00:03:33;67198.63;;;0.00;nan
9091;BME280;4581;42.416;25.598;2023-05-12T00:06:00;67200.16;;;0.00;nan
9091;BME280;4581;42.416;25.598;2023-05-12T00:08:30;67197.09;;;0.00;nan
9091;BME280;4581;42.416;25.598;2023-05-12T00:10:57;67197.09;;;0.00;nan
9091;BME280;4581;42.416;25.598;2023-05-12T00:13:24;67201.69;;;0.00;nan
9091;BME280;4581;42.416;25.598;2023-05-12T00:15:50;67207.78;;;0.00;nan
9091;BME280;4581;42.416;25.598;2023-05-12T00:18:17;67203.22;;;0.00;nan
9091;BME280;4581;42.416;25.598;2023-05-12T00:20:44;67207.78;;;0.00;nan
9091;BME280;4581;42.416;25.598;2023-05-12T00:23:11;67210.84;;;0.00;nan
9091;BME280;4581;42.416;25.598;2023-05-12T00:25:37;67213.88;;;0.00;nan
9091;BME280;4581;42.416;25.598;2023-05-12T00:28:04;67210.84;;;0.00;nan
9091;BME280;4581;42.416;25.598;2023-05-12T00:30:31;67213.88;;;0.00;nan
9091;BME280;4581;42.416;25.598;2023-05-12T00:32:57;67215.41;;;0.00;nan
9091;BME280;4581;42.416;25.598;2023-05-12T00:35:24;67212.38;;;0.00;nan
9091;BME280;4581;42.416;25.598;2023-05-12T00:37:51;67212.38;;;0.00;nan
9091;BME280;4581;42.416;25.598;2023-05-12T00:40:18;67212.38;;;0.00;nan
9091;BME280;4581;42.416;25.598;2023-05-12T00:42:45;67209.31;;;0.00;nan
9091;BME280;4581;42.416;25.598;2023-05-12T00:45:11;67212.38;;;0.00;nan
9091;BME280;4581;42.416;25.598;2023-05-12T00:47:38;67210.84;;;0.00;nan
9091;BME280;4581;42.416;25.598;2023-05-12T00:50:06;67215.41;;;0.00;nan
9091;BME280;4581;42.416;25.598;2023-05-12T00:52:34;67213.88;;;0.00;nan
9091;BME280;4581;42.416;25.598;2023-05-12T00:55:01;67212.38;;;0.00;nan
9091;BME280;4581;42.416;25.598;2023-05-12T00:57:28;67215.41;;;0.00;nan
9091;BME280;4581;42.416;25.598;2023-05-12T00:59:55;67215.41;;;0.00;nan
9091;BME280;4581;42.416;25.598;2023-05-12T01:02:22;67212.38;;;0.00;nan
9091;BME280;4581;42.416;25.598;2023-05-12T01:04:49;67221.53;;;0.00;nan
9091;BME280;4581;42.416;25.598;2023-05-12T01:07:19;67213.88;;;0.00;nan
9091;BME280;4581;42.416;25.598;2023-05-12T01:09:47;67223.03;;;0.00;nan
9091;BME280;4581;42.416;25.598;2023-05-12T01:12:14;67212.38;;;0.00;nan
9091;BME280;4581;42.416;25.598;2023-05-12T01:14:41;67216.94;;;0.00;nan
9091;BME280;4581;42.416;25.598;2023-05-12T01:17:10;67216.94;;;0.00;nan
9091;BME280;4581;42.416;25.598;2023-05-12T01:19:51;67215.41;;;0.00;nan
9091;BME280;4581;42.416;25.598;2023-05-12T01:22:19;67213.88;;;0.00;nan
9091;BME280;4581;42.416;25.598;2023-05-12T01:24:57;67212.38;;;0.00;nan
9091;BME280;4581;42.416;25.598;2023-05-12T01:27:25;67216.94;;;0.00;nan
9091;BME280;4581;42.416;25.598;2023-05-12T01:29:55;67223.03;;;0.00;nan
9091;BME280;4581;42.416;25.598;2023-05-12T01:32:23;67216.94;;;0.00;nan
9091;BME280;4581;42.416;25.598;2023-05-12T01:34:50;67223.03;;;0.00;nan
9091;BME280;4581;42.416;25.598;2023-05-12T01:37:16;67226.09;;;0.00;nan
9091;BME280;4581;42.416;25.598;2023-05-12T01:39:43;67226.09;;;0.00;nan
9091;BME280;4581;42.416;25.598;2023-05-12T01:42:10;67230.69;;;0.00;nan
9091;BME280;4581;42.416;25.598;2023-05-12T01:44:37;67232.19;;;0.00;nan
9091;BME280;4581;42.416;25.598;2023-05-12T01:47:03;67230.69;;;0.00;nan
9091;BME280;4581;42.416;25.598;2023-05-12T01:49:30;67238.31;;;0.00;nan
9091;BME280;4581;42.416;25.598;2023-05-12T01:51:57;67233.72;;;0.00;nan
9091;BME280;4581;42.416;25.598;2023-05-12T01:54:23;67238.31;;;0.00;nan
9091;BME280;4581;42.416;25.598;2023-05-12T01:56:50;67244.41;;;0.00;nan
9091;BME280;4581;42.416;25.598;2023-05-12T01:59:17;67236.78;;;0.00;nan
9091;BME280;4581;42.416;25.598;2023-05-12T02:01:43;67236.78;;;0.00;nan
9091;BME280;4581;42.416;25.598;2023-05-12T02:04:10;67236.78;;;0.00;nan
9091;BME280;4581;42.416;25.598;2023-05-12T02:06:37;67236.78;;;0.00;nan
9091;BME280;4581;42.416;25.598;2023-05-12T02:09:04;67236.78;;;0.00;nan
9091;BME280;4581;42.416;25.598;2023-05-12T02:11:30;67235.25;;;0.00;nan
9091;BME280;4581;42.416;25.598;2023-05-12T02:13:57;67233.72;;;0.00;nan
9091;BME280;4581;42.416;25.598;2023-05-12T02:16:24;67239.84;;;0.00;nan
9091;BME280;4581;42.416;25.598;2023-05-12T02:18:51;67242.88;;;0.00;nan
9091;BME280;4581;42.416;25.598;2023-05-12T02:21:17;67232.19;;;0.00;nan
9091;BME280;4581;42.416;25.598;2023-05-12T02:23:44;67236.78;;;0.00;nan
9091;BME280;4581;42.416;25.598;2023-05-12T02:26:11;67235.25;;;0.00;nan
9091;BME280;4581;42.416;25.598;2023-05-12T02:28:37;67238.31;;;0.00;nan
9091;BME280;4581;42.416;25.598;2023-05-12T02:31:04;67236.78;;;0.00;nan
9091;BME280;4581;42.416;25.598;2023-05-12T02:33:31;67230.69;;;0.00;nan
9091;BME280;4581;42.416;25.598;2023-05-12T02:35:57;67233.72;;;0.00;nan
9091;BME280;4581;42.416;25.598;2023-05-12T02:38:24;67233.72;;;0.00;nan
9091;BME280;4581;42.416;25.598;2023-05-12T02:40:51;67229.16;;;0.00;nan
9091;BME280;4581;42.416;25.598;2023-05-12T02:43:17;67230.69;;;0.00;nan
9091;BME280;4581;42.416;25.598;2023-05-12T02:45:44;67238.31;;;0.00;nan
9091;BME280;4581;42.416;25.598;2023-05-12T02:48:11;67232.19;;;0.00;nan
9091;BME280;4581;42.416;25.598;2023-05-12T02:50:37;67232.19;;;0.00;nan
9091;BME280;4581;42.416;25.598;2023-05-12T02:53:04;67232.19;;;0.00;nan
9091;BME280;4581;42.416;25.598;2023-05-12T02:55:31;67233.72;;;0.00;nan
9091;BME280;4581;42.416;25.598;2023-05-12T02:57:57;67235.25;;;0.00;nan
9091;BME280;4581;42.416;25.598;2023-05-12T03:00:24;67236.78;;;0.00;nan
9091;BME280;4581;42.416;25.598;2023-05-12T03:02:51;67230.69;;;0.00;nan
9091;BME280;4581;42.416;25.598;2023-05-12T03:05:17;67233.72;;;0.00;nan
9091;BME280;4581;42.416;25.598;2023-05-12T03:07:46;67230.69;;;0.00;nan
9091;BME280;4581;42.416;25.598;2023-05-12T03:10:15;67229.16;;;0.00;nan
9091;BME280;4581;42.416;25.598;2023-05-12T03:12:42;67230.69;;;0.00;nan
9091;BME280;4581;42.416;25.598;2023-05-12T03:15:09;67224.56;;;0.00;nan
9091;BME280;4581;42.416;25.598;2023-05-12T03:17:36;67227.63;;;0.00;nan
9091;BME280;4581;42.416;25.598;2023-05-12T03:20:03;67230.69;;;0.00;nan
9091;BME280;4581;42.416;25.598;2023-05-12T03:22:30;67227.63;;;0.00;nan
9091;BME280;4581;42.416;25.598;2023-05-12T03:24:57;67235.25;;;0.00;nan
9091;BME280;4581;42.416;25.598;2023-05-12T03:27:24;67227.63;;;0.00;nan
9091;BME280;4581;42.416;25.598;2023-05-12T03:29:50;67227.63;;;0.00;nan
9091;BME280;4581;42.416;25.598;2023-05-12T03:32:17;67227.63;;;0.00;nan
9091;BME280;4581;42.416;25.598;2023-05-12T03:34:44;67233.72;;;0.00;nan
9091;BME280;4581;42.416;25.598;2023-05-12T03:37:10;67235.25;;;0.00;nan
9091;BME280;4581;42.416;25.598;2023-05-12T03:39:38;67241.34;;;0.00;nan
9091;BME280;4581;42.416;25.598;2023-05-12T03:42:05;67227.63;;;0.00;nan
9091;BME280;4581;42.416;25.598;2023-05-12T03:44:31;67229.16;;;0.00;nan
9091;BME280;4581;42.416;25.598;2023-05-12T03:46:58;67224.56;;;0.00;nan
9091;BME280;4581;42.416;25.598;2023-05-12T03:49:25;67226.09;;;0.00;nan
9091;BME280;4581;42.416;25.598;2023-05-12T03:51:51;67226.09;;;0.00;nan
9091;BME280;4581;42.416;25.598;2023-05-12T03:54:18;67227.63;;;0.00;nan
9091;BME280;4581;42.416;25.598;2023-05-12T03:56:45;67223.03;;;0.00;nan
9091;BME280;4581;42.416;25.598;2023-05-12T03:59:12;67221.53;;;0.00;nan
9091;BME280;4581;42.416;25.598;2023-05-12T04:01:38;67224.56;;;0.00;nan
9091;BME280;4581;42.416;25.598;2023-05-12T04:04:05;67212.38;;;0.00;nan
9091;BME280;4581;42.416;25.598;2023-05-12T04:06:32;67216.94;;;0.00;nan
9091;BME280;4581;42.416;25.598;2023-05-12T04:08:58;67210.84;;;0.00;nan
9091;BME280;4581;42.416;25.598;2023-05-12T04:11:25;67204.75;;;0.00;nan
9091;BME280;4581;42.416;25.598;2023-05-12T04:13:52;67200.16;;;0.00;nan
9091;BME280;4581;42.416;25.598;2023-05-12T04:16:18;67192.53;;;0.00;nan
9091;BME280;4581;42.416;25.598;2023-05-12T04:18:45;67187.94;;;0.00;nan
9091;BME280;4581;42.416;25.598;2023-05-12T04:21:12;67183.38;;;0.00;nan
9091;BME280;4581;42.416;25.598;2023-05-12T04:23:38;67175.75;;;0.00;nan
9091;BME280;4581;42.416;25.598;2023-05-12T04:26:06;67172.69;;;0.00;nan
9091;BME280;4581;42.416;25.598;2023-05-12T04:28:32;67165.06;;;0.00;nan
9091;BME280;4581;42.416;25.598;2023-05-12T04:31:02;67162.00;;;0.00;nan
9091;BME280;4581;42.416;25.598;2023-05-12T04:33:32;67154.38;;;0.00;nan
9091;BME280;4581;42.416;25.598;2023-05-12T04:35:59;67155.91;;;0.00;nan
9091;BME280;4581;42.416;25.598;2023-05-12T04:38:26;67140.66;;;0.00;nan
9091;BME280;4581;42.416;25.598;2023-05-12T04:40:59;67136.06;;;0.00;nan
9091;BME280;4581;42.416;25.598;2023-05-12T04:43:26;67129.97;;;0.00;nan
9091;BME280;4581;42.416;25.598;2023-05-12T04:45:56;67136.06;;;0.00;nan
9091;BME280;4581;42.416;25.598;2023-05-12T04:48:25;67126.91;;;0.00;nan
9091;BME280;4581;42.416;25.598;2023-05-12T04:50:52;67120.81;;;0.00;nan
9091;BME280;4581;42.416;25.598;2023-05-12T04:53:18;67122.34;;;0.00;nan
9091;BME280;4581;42.416;25.598;2023-05-12T04:55:45;67113.19;;;0.00;nan
9091;BME280;4581;42.416;25.598;2023-05-12T04:58:12;67107.09;;;0.00;nan
9091;BME280;4581;42.416;25.598;2023-05-12T05:00:39;67110.13;;;0.00;nan
9091;BME280;4581;42.416;25.598;2023-05-12T05:03:06;67104.03;;;0.00;nan
9091;BME280;4581;42.416;25.598;2023-05-12T05:05:32;67100.97;;;0.00;nan
9091;BME280;4581;42.416;25.598;2023-05-12T05:07:59;67093.34;;;0.00;nan
9091;BME280;4581;42.416;25.598;2023-05-12T05:10:27;67093.34;;;0.00;nan
9091;BME280;4581;42.416;25.598;2023-05-12T05:12:53;67075.03;;;0.00;nan
9091;BME280;4581;42.416;25.598;2023-05-12T05:15:20;67070.47;;;0.00;nan
9091;BME280;4581;42.416;25.598;2023-05-12T05:17:47;67065.88;;;0.00;nan
9091;BME280;4581;42.416;25.598;2023-05-12T05:20:15;67059.78;;;0.00;nan
9091;BME280;4581;42.416;25.598;2023-05-12T05:22:42;67050.63;;;0.00;nan
9091;BME280;4581;42.416;25.598;2023-05-12T05:25:09;67041.47;;;0.00;nan
9091;BME280;4581;42.416;25.598;2023-05-12T05:27:36;67029.25;;;0.00;nan
9091;BME280;4581;42.416;25.598;2023-05-12T05:30:07;67032.31;;;0.00;nan
9091;BME280;4581;42.416;25.598;2023-05-12T05:32:34;67029.25;;;0.00;nan
9091;BME280;4581;42.416;25.598;2023-05-12T05:35:02;67018.56;;;0.00;nan
9091;BME280;4581;42.416;25.598;2023-05-12T05:37:29;67004.84;;;0.00;nan
9091;BME280;4581;42.416;25.598;2023-05-12T05:39:56;66994.16;;;0.00;nan
9091;BME280;4581;42.416;25.598;2023-05-12T05:42:23;66980.44;;;0.00;nan
9091;BME280;4581;42.416;25.598;2023-05-12T05:44:49;66975.84;;;0.00;nan
9091;BME280;4581;42.416;25.598;2023-05-12T05:47:16;66963.66;;;0.00;nan
9091;BME280;4581;42.416;25.598;2023-05-12T05:49:43;66954.50;;;0.00;nan
9091;BME280;4581;42.416;25.598;2023-05-12T05:52:09;66943.81;;;0.00;nan
9091;BME280;4581;42.416;25.598;2023-05-12T05:54:36;66936.19;;;0.00;nan
9091;BME280;4581;42.416;25.598;2023-05-12T05:57:03;66930.06;;;0.00;nan
9091;BME280;4581;42.416;25.598;2023-05-12T05:59:30;66927.03;;;0.00;nan
9091;BME280;4581;42.416;25.598;2023-05-12T06:01:57;66917.88;;;0.00;nan
9091;BME280;4581;42.416;25.598;2023-05-12T06:04:24;66902.59;;;0.00;nan
9091;BME280;4581;42.416;25.598;2023-05-12T06:06:51;66907.19;;;0.00;nan
9091;BME280;4581;42.416;25.598;2023-05-12T06:09:17;66916.34;;;0.00;nan
9091;BME280;4581;42.416;25.598;2023-05-12T06:11:44;66899.56;;;0.00;nan
9091;BME280;4581;42.416;25.598;2023-05-12T06:14:11;66899.56;;;0.00;nan
9091;BME280;4581;42.416;25.598;2023-05-12T06:16:37;66899.56;;;0.00;nan
9091;BME280;4581;42.416;25.598;2023-05-12T06:19:05;66890.41;;;0.00;nan
9091;BME280;4581;42.416;25.598;2023-05-12T06:21:32;66904.13;;;0.00;nan
9091;BME280;4581;42.416;25.598;2023-05-12T06:23:58;66907.19;;;0.00;nan
9091;BME280;4581;42.416;25.598;2023-05-12T06:26:25;66907.19;;;0.00;nan
9091;BME280;4581;42.416;25.598;2023-05-12T06:28:52;66904.13;;;0.00;nan
9091;BME280;4581;42.416;25.598;2023-05-12T06:31:18;66919.41;;;0.00;nan
9091;BME280;4581;42.416;25.598;2023-05-12T06:33:45;66904.13;;;0.00;nan
9091;BME280;4581;42.416;25.598;2023-05-12T06:36:12;66896.50;;;0.00;nan
9091;BME280;4581;42.416;25.598;2023-05-12T06:38:39;66904.13;;;0.00;nan
9091;BME280;4581;42.416;25.598;2023-05-12T06:41:05;66901.09;;;0.00;nan
9091;BME280;4581;42.416;25.598;2023-05-12T06:43:32;66890.41;;;0.00;nan
9091;BME280;4581;42.416;25.598;2023-05-12T06:45:59;66907.19;;;0.00;nan
9091;BME280;4581;42.416;25.598;2023-05-12T06:48:25;66925.50;;;0.00;nan
9091;BME280;4581;42.416;25.598;2023-05-12T06:50:52;66931.59;;;0.00;nan
9091;BME280;4581;42.416;25.598;2023-05-12T06:53:19;66922.44;;;0.00;nan
9091;BME280;4581;42.416;25.598;2023-05-12T06:55:46;66908.72;;;0.00;nan
9091;BME280;4581;42.416;25.598;2023-05-12T06:58:13;66907.19;;;0.00;nan
9091;BME280;4581;42.416;25.598;2023-05-12T07:00:40;66894.97;;;0.00;nan
9091;BME280;4581;42.416;25.598;2023-05-12T07:03:06;66885.81;;;0.00;nan
9091;BME280;4581;42.416;25.598;2023-05-12T07:05:35;66885.81;;;0.00;nan
9091;BME280;4581;42.416;25.598;2023-05-12T07:08:02;66875.16;;;0.00;nan
9091;BME280;4581;42.416;25.598;2023-05-12T07:10:29;66866.00;;;0.00;nan
9091;BME280;4581;42.416;25.598;2023-05-12T07:12:57;66847.69;;;0.00;nan
9091;BME280;4581;42.416;25.598;2023-05-12T07:15:24;66843.09;;;0.00;nan
9091;BME280;4581;42.416;25.598;2023-05-12T07:17:50;66837.00;;;0.00;nan
9091;BME280;4581;42.416;25.598;2023-05-12T07:20:17;66811.06;;;0.00;nan
9091;BME280;4581;42.416;25.598;2023-05-12T07:22:44;66818.69;;;0.00;nan
9091;BME280;4581;42.416;25.598;2023-05-12T07:25:11;66811.06;;;0.00;nan
9091;BME280;4581;42.416;25.598;2023-05-12T07:27:38;66791.22;;;0.00;nan
9091;BME280;4581;42.416;25.598;2023-05-12T07:30:05;66782.06;;;0.00;nan
9091;BME280;4581;42.416;25.598;2023-05-12T07:32:33;66742.41;;;0.00;nan
9091;BME280;4581;42.416;25.598;2023-05-12T07:34:59;66728.66;;;0.00;nan
9091;BME280;4581;42.416;25.598;2023-05-12T07:37:26;66711.88;;;0.00;nan
9091;BME280;4581;42.416;25.598;2023-05-12T07:39:53;66717.97;;;0.00;nan
9091;BME280;4581;42.416;25.598;2023-05-12T07:42:20;66745.44;;;0.00;nan
9091;BME280;4581;42.416;25.598;2023-05-12T07:44:48;66746.97;;;0.00;nan
9091;BME280;4581;42.416;25.598;2023-05-12T07:47:14;66727.13;;;0.00;nan
9091;BME280;4581;42.416;25.598;2023-05-12T07:49:41;66721.03;;;0.00;nan
9091;BME280;4581;42.416;25.598;2023-05-12T07:52:08;66708.81;;;0.00;nan
9091;BME280;4581;42.416;25.598;2023-05-12T07:54:35;66707.28;;;0.00;nan
9091;BME280;4581;42.416;25.598;2023-05-12T07:57:01;66675.25;;;0.00;nan
9091;BME280;4581;42.416;25.598;2023-05-12T07:59:28;66653.88;;;0.00;nan
9091;BME280;4581;42.416;25.598;2023-05-12T08:01:55;66649.31;;;0.00;nan
9091;BME280;4581;42.416;25.598;2023-05-12T08:04:21;66621.84;;;0.00;nan
9091;BME280;4581;42.416;25.598;2023-05-12T08:06:48;66635.59;;;0.00;nan
9091;BME280;4581;42.416;25.598;2023-05-12T08:09:15;66620.31;;;0.00;nan
9091;BME280;4581;42.416;25.598;2023-05-12T08:11:42;66641.69;;;0.00;nan
9091;BME280;4581;42.416;25.598;2023-05-12T08:14:11;66670.69;;;0.00;nan
9091;BME280;4581;42.416;25.598;2023-05-12T08:16:38;66646.25;;;0.00;nan
9091;BME280;4581;42.416;25.598;2023-05-12T08:19:06;66629.47;;;0.00;nan
9091;BME280;4581;42.416;25.598;2023-05-12T08:21:33;66592.84;;;0.00;nan
9091;BME280;4581;42.416;25.598;2023-05-12T08:23:59;66563.88;;;0.00;nan
9091;BME280;4581;42.416;25.598;2023-05-12T08:26:26;66562.34;;;0.00;nan
9091;BME280;4581;42.416;25.598;2023-05-12T08:28:53;66525.72;;;0.00;nan
9091;BME280;4581;42.416;25.598;2023-05-12T08:31:19;66516.56;;;0.00;nan
9091;BME280;4581;42.416;25.598;2023-05-12T08:33:46;66492.16;;;0.00;nan
9091;BME280;4581;42.416;25.598;2023-05-12T08:36:17;66495.19;;;0.00;nan
9091;BME280;4581;42.416;25.598;2023-05-12T08:38:44;66454.00;;;0.00;nan
9091;BME280;4581;42.416;25.598;2023-05-12T08:41:18;66443.31;;;0.00;nan
9091;BME280;4581;42.416;25.598;2023-05-12T08:43:49;66408.22;;;0.00;nan
9091;BME280;4581;42.416;25.598;2023-05-12T08:46:17;66446.38;;;0.00;nan
9091;BME280;4581;42.416;25.598;2023-05-12T08:48:49;66435.69;;;0.00;nan
9091;BME280;4581;42.416;25.598;2023-05-12T08:51:17;66507.41;;;0.00;nan
9091;BME280;4581;42.416;25.598;2023-05-12T08:53:46;66528.78;;;0.00;nan
9091;BME280;4581;42.416;25.598;2023-05-12T08:56:13;66516.56;;;0.00;nan
9091;BME280;4581;42.416;25.598;2023-05-12T08:58:45;66516.56;;;0.00;nan
9091;BME280;4581;42.416;25.598;2023-05-12T09:01:13;66530.28;;;0.00;nan
9091;BME280;4581;42.416;25.598;2023-05-12T09:03:40;66537.91;;;0.00;nan
9091;BME280;4581;42.416;25.598;2023-05-12T09:06:08;66566.91;;;0.00;nan
9091;BME280;4581;42.416;25.598;2023-05-12T09:08:37;66565.38;;;0.00;nan
9091;BME280;4581;42.416;25.598;2023-05-12T09:11:05;66598.97;;;0.00;nan
9091;BME280;4581;42.416;25.598;2023-05-12T09:13:36;66606.59;;;0.00;nan
9091;BME280;4581;42.416;25.598;2023-05-12T09:16:06;66588.28;;;0.00;nan
9091;BME280;4581;42.416;25.598;2023-05-12T09:18:53;66568.44;;;0.00;nan
9091;BME280;4581;42.416;25.598;2023-05-12T09:21:21;66560.81;;;0.00;nan
9091;BME280;4581;42.416;25.598;2023-05-12T09:23:58;66560.81;;;0.00;nan
9091;BME280;4581;42.416;25.598;2023-05-12T09:26:27;66518.09;;;0.00;nan
9091;BME280;4581;42.416;25.598;2023-05-12T09:29:02;66534.88;;;0.00;nan
9091;BME280;4581;42.416;25.598;2023-05-12T09:31:34;66539.44;;;0.00;nan
9091;BME280;4581;42.416;25.598;2023-05-12T09:34:08;66516.56;;;0.00;nan
9091;BME280;4581;42.416;25.598;2023-05-12T09:36:35;66476.88;;;0.00;nan
9091;BME280;4581;42.416;25.598;2023-05-12T09:39:04;66417.38;;;0.00;nan
9091;BME280;4581;42.416;25.598;2023-05-12T09:41:34;66417.38;;;0.00;nan
9091;BME280;4581;42.416;25.598;2023-05-12T09:44:02;66431.13;;;0.00;nan
9091;BME280;4581;42.416;25.598;2023-05-12T09:46:29;66452.47;;;0.00;nan
9091;BME280;4581;42.416;25.598;2023-05-12T09:48:57;66464.69;;;0.00;nan
9091;BME280;4581;42.416;25.598;2023-05-12T09:51:25;66470.78;;;0.00;nan
9091;BME280;4581;42.416;25.598;2023-05-12T09:53:52;66394.50;;;0.00;nan
9091;BME280;4581;42.416;25.598;2023-05-12T09:56:19;66344.13;;;0.00;nan
9091;BME280;4581;42.416;25.598;2023-05-12T09:58:47;66306.00;;;0.00;nan
9091;BME280;4581;42.416;25.598;2023-05-12T10:01:16;66348.72;;;0.00;nan
9091;BME280;4581;42.416;25.598;2023-05-12T10:03:54;66345.66;;;0.00;nan
9091;BME280;4581;42.416;25.598;2023-05-12T10:06:29;66356.34;;;0.00;nan
9091;BME280;4581;42.416;25.598;2023-05-12T10:11:41;66328.88;;;0.00;nan
9091;BME280;4581;42.416;25.598;2023-05-12T10:14:09;66363.97;;;0.00;nan
9091;BME280;4581;42.416;25.598;2023-05-12T10:16:37;66382.28;;;0.00;nan
9091;BME280;4581;42.416;25.598;2023-05-12T10:19:05;66400.59;;;0.00;nan
9091;BME280;4581;42.416;25.598;2023-05-12T10:21:32;66421.97;;;0.00;nan
9091;BME280;4581;42.416;25.598;2023-05-12T10:24:02;66441.78;;;0.00;nan
9091;BME280;4581;42.416;25.598;2023-05-12T10:26:31;66446.38;;;0.00;nan
9091;BME280;4581;42.416;25.598;2023-05-12T10:28:58;66441.78;;;0.00;nan
9091;BME280;4581;42.416;25.598;2023-05-12T10:31:26;66444.84;;;0.00;nan
9091;BME280;4581;42.416;25.598;2023-05-12T10:33:57;66464.69;;;0.00;nan
9091;BME280;4581;42.416;25.598;2023-05-12T10:36:25;66458.56;;;0.00;nan
9091;BME280;4581;42.416;25.598;2023-05-12T10:38:52;66425.00;;;0.00;nan
9091;BME280;4581;42.416;25.598;2023-05-12T10:41:31;66414.31;;;0.00;nan
9091;BME280;4581;42.416;25.598;2023-05-12T10:43:58;66376.19;;;0.00;nan
9091;BME280;4581;42.416;25.598;2023-05-12T10:46:25;66371.59;;;0.00;nan
9091;BME280;4581;42.416;25.598;2023-05-12T10:51:33;66475.38;;;0.00;nan
9091;BME280;4581;42.416;25.598;2023-05-12T10:54:04;66473.84;;;0.00;nan
9091;BME280;4581;42.416;25.598;2023-05-12T10:59:18;66431.13;;;0.00;nan
9091;BME280;4581;42.416;25.598;2023-05-12T11:02:15;66374.66;;;0.00;nan
9091;BME280;4581;42.416;25.598;2023-05-12T11:04:54;66353.28;;;0.00;nan
9091;BME280;4581;42.416;25.598;2023-05-12T11:07:32;66312.09;;;0.00;nan
9091;BME280;4581;42.416;25.598;2023-05-12T11:10:03;66382.28;;;0.00;nan
9091;BME280;4581;42.416;25.598;2023-05-12T11:12:32;66444.84;;;0.00;nan
9091;BME280;4581;42.416;25.598;2023-05-12T11:15:02;66447.91;;;0.00;nan
9091;BME280;4581;42.416;25.598;2023-05-12T11:17:30;66472.31;;;0.00;nan
9091;BME280;4581;42.416;25.598;2023-05-12T11:19:57;66466.22;;;0.00;nan
9091;BME280;4581;42.416;25.598;2023-05-12T11:22:25;66449.41;;;0.00;nan
9091;BME280;4581;42.416;25.598;2023-05-12T11:24:52;66449.41;;;0.00;nan
9091;BME280;4581;42.416;25.598;2023-05-12T11:27:20;66472.31;;;0.00;nan
9091;BME280;4581;42.416;25.598;2023-05-12T11:29:58;66435.69;;;0.00;nan
9091;BME280;4581;42.416;25.598;2023-05-12T11:32:25;66376.19;;;0.00;nan
9091;BME280;4581;42.416;25.598;2023-05-12T11:34:52;66342.59;;;0.00;nan
9091;BME280;4581;42.416;25.598;2023-05-12T11:37:18;66306.00;;;0.00;nan
9091;BME280;4581;42.416;25.598;2023-05-12T11:39:46;66336.50;;;0.00;nan
9091;BME280;4581;42.416;25.598;2023-05-12T11:42:13;66389.91;;;0.00;nan
9091;BME280;4581;42.416;25.598;2023-05-12T11:44:46;66434.16;;;0.00;nan
9091;BME280;4581;42.416;25.598;2023-05-12T11:47:14;66450.94;;;0.00;nan
9091;BME280;4581;42.416;25.598;2023-05-12T11:49:52;66435.69;;;0.00;nan
9091;BME280;4581;42.416;25.598;2023-05-12T11:52:23;66435.69;;;0.00;nan
9091;BME280;4581;42.416;25.598;2023-05-12T11:54:57;66431.13;;;0.00;nan
9091;BME280;4581;42.416;25.598;2023-05-12T11:59:57;66368.56;;;0.00;nan
9091;BME280;4581;42.416;25.598;2023-05-12T12:02:26;66295.31;;;0.00;nan
9091;BME280;4581;42.416;25.598;2023-05-12T12:04:53;66304.47;;;0.00;nan
9091;BME280;4581;42.416;25.598;2023-05-12T12:07:28;66351.75;;;0.00;nan
9091;BME280;4581;42.416;25.598;2023-05-12T12:09:56;66370.06;;;0.00;nan
9091;BME280;4581;42.416;25.598;2023-05-12T12:12:22;66344.13;;;0.00;nan
9091;BME280;4581;42.416;25.598;2023-05-12T12:14:49;66339.56;;;0.00;nan
9091;BME280;4581;42.416;25.598;2023-05-12T12:17:16;66383.81;;;0.00;nan
9091;BME280;4581;42.416;25.598;2023-05-12T12:19:42;66428.06;;;0.00;nan
9091;BME280;4581;42.416;25.598;2023-05-12T12:22:09;66432.63;;;0.00;nan
9091;BME280;4581;42.416;25.598;2023-05-12T12:24:36;66461.63;;;0.00;nan
9091;BME280;4581;42.416;25.598;2023-05-12T12:27:02;66435.69;;;0.00;nan
9091;BME280;4581;42.416;25.598;2023-05-12T12:29:30;66417.38;;;0.00;nan
9091;BME280;4581;42.416;25.598;2023-05-12T12:31:57;66408.22;;;0.00;nan
9091;BME280;4581;42.416;25.598;2023-05-12T12:34:24;66397.53;;;0.00;nan
9091;BME280;4581;42.416;25.598;2023-05-12T12:36:50;66368.56;;;0.00;nan
9091;BME280;4581;42.416;25.598;2023-05-12T12:39:17;66341.09;;;0.00;nan
9091;BME280;4581;42.416;25.598;2023-05-12T12:41:45;66342.59;;;0.00;nan
9091;BME280;4581;42.416;25.598;2023-05-12T12:44:13;66351.75;;;0.00;nan
9091;BME280;4581;42.416;25.598;2023-05-12T12:46:40;66342.59;;;0.00;nan
9091;BME280;4581;42.416;25.598;2023-05-12T12:49:07;66338.03;;;0.00;nan
9091;BME280;4581;42.416;25.598;2023-05-12T12:51:34;66315.16;;;0.00;nan
9091;BME280;4581;42.416;25.598;2023-05-12T12:54:10;66299.88;;;0.00;nan
9091;BME280;4581;42.416;25.598;2023-05-12T12:56:37;66333.44;;;0.00;nan
9091;BME280;4581;42.416;25.598;2023-05-12T12:59:04;66356.34;;;0.00;nan
9091;BME280;4581;42.416;25.598;2023-05-12T13:01:31;66367.03;;;0.00;nan
9091;BME280;4581;42.416;25.598;2023-05-12T13:03:58;66385.34;;;0.00;nan
9091;BME280;4581;42.416;25.598;2023-05-12T13:06:25;66367.03;;;0.00;nan
9091;BME280;4581;42.416;25.598;2023-05-12T13:08:53;66359.41;;;0.00;nan
9091;BME280;4581;42.416;25.598;2023-05-12T13:11:19;66368.56;;;0.00;nan
9091;BME280;4581;42.416;25.598;2023-05-12T13:13:46;66391.44;;;0.00;nan
9091;BME280;4581;42.416;25.598;2023-05-12T13:16:13;66379.22;;;0.00;nan
9091;BME280;4581;42.416;25.598;2023-05-12T13:18:40;66368.56;;;0.00;nan
9091;BME280;4581;42.416;25.598;2023-05-12T13:21:07;66345.66;;;0.00;nan
9091;BME280;4581;42.416;25.598;2023-05-12T13:23:33;66342.59;;;0.00;nan
9091;BME280;4581;42.416;25.598;2023-05-12T13:26:00;66363.97;;;0.00;nan
9091;BME280;4581;42.416;25.598;2023-05-12T13:28:27;66363.97;;;0.00;nan
9091;BME280;4581;42.416;25.598;2023-05-12T13:30:54;66382.28;;;0.00;nan
9091;BME280;4581;42.416;25.598;2023-05-12T13:33:21;66412.81;;;0.00;nan
9091;BME280;4581;42.416;25.598;2023-05-12T13:35:47;66440.25;;;0.00;nan
9091;BME280;4581;42.416;25.598;2023-05-12T13:38:14;66460.09;;;0.00;nan
9091;BME280;4581;42.416;25.598;2023-05-12T13:40:41;66449.41;;;0.00;nan
9091;BME280;4581;42.416;25.598;2023-05-12T13:43:08;66421.97;;;0.00;nan
9091;BME280;4581;42.416;25.598;2023-05-12T13:45:35;66394.50;;;0.00;nan
9091;BME280;4581;42.416;25.598;2023-05-12T13:48:01;66380.75;;;0.00;nan
9091;BME280;4581;42.416;25.598;2023-05-12T13:50:28;66411.28;;;0.00;nan
9091;BME280;4581;42.416;25.598;2023-05-12T13:52:58;66440.25;;;0.00;nan
9091;BME280;4581;42.416;25.598;2023-05-12T13:55:25;66458.56;;;0.00;nan
9091;BME280;4581;42.416;25.598;2023-05-12T13:57:52;66447.91;;;0.00;nan